Time;durP1;ratioP1;P1;durP2;ratioP2;P2;SDS_P1;SDS_P2;PMS_P1;PMS_P2;Temp;Humidity;BMP_temperature;BMP_pressure;BME280_temperature;BME280_humidity;BME280_pressure;Samples;Min_cycle;Max_cycle;Signal;HPM_P1;HPM_P2
2021/04/21 00:02:09;;;;;;;27.60;23.20;;;13.00;66.50;;;;;;5095939;28;20898;-65
2021/04/21 00:04:36;;;;;;;28.20;25.30;;;13.00;66.40;;;;;;5096165;28;20497;-65
2021/04/21 00:07:03;;;;;;;26.30;23.50;;;13.00;66.10;;;;;;5095912;28;20472;-65
2021/04/21 00:09:30;;;;;;;26.53;23.73;;;13.10;66.40;;;;;;5095564;28;20436;-65
2021/04/21 00:11:59;;;;;;;26.97;24.17;;;13.10;66.50;;;;;;5095955;28;20444;-65
2021/04/21 00:14:26;;;;;;;28.33;25.33;;;13.10;66.70;;;;;;5095586;28;20444;-65
2021/04/21 00:16:55;;;;;;;27.67;24.80;;;13.10;66.90;;;;;;5095799;28;20480;-65
2021/04/21 00:19:24;;;;;;;28.63;25.70;;;13.20;66.90;;;;;;5095723;28;20476;-65
2021/04/21 00:21:51;;;;;;;29.70;26.60;;;13.20;66.40;;;;;;5095844;28;20448;-65
2021/04/21 00:24:18;;;;;;;27.90;24.97;;;13.20;66.50;;;;;;5095702;28;20444;-65
2021/04/21 00:26:46;;;;;;;32.63;28.07;;;13.10;66.10;;;;;;5095607;28;20464;-65
2021/04/21 00:29:14;;;;;;;31.40;27.37;;;13.20;66.50;;;;;;5095568;28;20496;-65
2021/04/21 00:31:44;;;;;;;30.43;26.83;;;13.10;66.50;;;;;;5095579;28;20443;-65
2021/04/21 00:34:12;;;;;;;29.87;26.63;;;13.10;66.60;;;;;;5095552;28;20428;-65
2021/04/21 00:36:41;;;;;;;30.13;26.93;;;13.10;66.50;;;;;;5095394;28;20456;-66
2021/04/21 00:39:10;;;;;;;29.33;26.20;;;13.10;66.70;;;;;;5095342;28;20451;-65
2021/04/21 00:41:45;;;;;;;32.13;27.20;;;13.10;66.80;;;;;;5095338;28;20444;-65
2021/04/21 00:44:21;;;;;;;29.10;26.00;;;13.00;66.90;;;;;;5095330;28;20458;-65
2021/04/21 00:46:52;;;;;;;27.00;24.17;;;13.00;67.90;;;;;;5095229;28;20474;-66
2021/04/21 00:49:23;;;;;;;30.67;25.53;;;13.00;67.30;;;;;;5095260;28;20428;-65
2021/04/21 00:51:54;;;;;;;32.20;24.20;;;13.00;67.60;;;;;;5096031;28;20428;-65
2021/04/21 00:54:32;;;;;;;30.00;25.77;;;13.00;67.90;;;;;;5095098;28;20436;-65
2021/04/21 00:57:14;;;;;;;27.77;24.77;;;12.90;68.00;;;;;;5094702;28;20501;-65
2021/04/21 00:59:54;;;;;;;29.70;26.60;;;12.90;67.80;;;;;;5094992;28;20471;-65
2021/04/21 01:02:26;;;;;;;29.90;26.67;;;12.90;67.90;;;;;;5095009;28;20438;-65
2021/04/21 01:04:53;;;;;;;26.67;23.67;;;12.90;68.00;;;;;;5094925;28;20441;-65
2021/04/21 01:07:21;;;;;;;27.03;24.23;;;12.80;68.00;;;;;;5094813;28;20460;-65
2021/04/21 01:09:52;;;;;;;26.63;23.80;;;12.80;68.30;;;;;;5094826;28;20450;-65
2021/04/21 01:12:22;;;;;;;27.63;24.73;;;12.80;68.40;;;;;;5094814;28;20431;-65
2021/04/21 01:14:52;;;;;;;26.53;23.70;;;12.80;68.50;;;;;;5094712;28;20447;-65
2021/04/21 01:17:19;;;;;;;28.70;24.33;;;12.70;68.60;;;;;;5094316;28;20977;-65
2021/04/21 01:20:03;;;;;;;27.20;24.30;;;12.70;68.70;;;;;;5094652;28;20545;-65
2021/04/21 01:22:53;;;;;;;26.83;24.13;;;12.60;69.00;;;;;;5093882;28;20433;-65
2021/04/21 01:25:23;;;;;;;29.30;26.27;;;12.60;69.20;;;;;;5094566;28;20432;-65
2021/04/21 01:28:00;;;;;;;30.37;26.40;;;12.60;69.30;;;;;;5094485;28;20460;-65
2021/04/21 01:30:28;;;;;;;27.37;24.47;;;12.50;69.20;;;;;;5094482;28;20430;-65
2021/04/21 01:32:58;;;;;;;31.03;27.70;;;12.60;69.30;;;;;;5094087;28;20921;-65
2021/04/21 01:35:24;;;;;;;29.57;26.13;;;12.60;69.10;;;;;;5094326;28;20813;-65
2021/04/21 01:37:54;;;;;;;27.90;23.50;;;12.60;69.10;;;;;;5093933;28;20463;-65
2021/04/21 01:40:26;;;;;;;30.03;26.80;;;12.60;69.00;;;;;;5094207;28;20483;-65
2021/04/21 01:42:56;;;;;;;36.03;28.03;;;12.50;69.00;;;;;;5094284;28;20800;-65
2021/04/21 01:45:26;;;;;;;29.47;26.30;;;12.50;69.50;;;;;;5094729;28;20452;-65
2021/04/21 01:47:55;;;;;;;31.87;26.83;;;12.50;69.40;;;;;;5094091;28;20460;-65
2021/04/21 01:50:21;;;;;;;29.57;25.93;;;12.50;69.80;;;;;;5094098;28;20847;-65
2021/04/21 01:52:56;;;;;;;28.33;25.23;;;12.40;69.60;;;;;;5094056;28;20497;-65
2021/04/21 01:55:46;;;;;;;29.93;26.83;;;12.40;69.80;;;;;;5093824;28;20463;-65
2021/04/21 01:58:22;;;;;;;31.10;27.70;;;12.40;69.90;;;;;;5090294;28;20480;-65
2021/04/21 02:00:53;;;;;;;32.40;28.77;;;12.30;70.00;;;;;;5093889;28;20546;-65
2021/04/21 02:03:24;;;;;;;33.53;29.93;;;12.30;70.00;;;;;;5093912;28;20431;-65
2021/04/21 02:06:22;;;;;;;34.00;30.37;;;12.30;69.90;;;;;;5093913;28;20428;-65
2021/04/21 02:09:02;;;;;;;38.10;34.00;;;12.30;70.50;;;;;;5093495;28;20427;-65
2021/04/21 02:11:33;;;;;;;39.07;34.83;;;12.20;69.50;;;;;;5093514;28;20917;-65
2021/04/21 02:14:17;;;;;;;37.67;33.67;;;12.20;69.80;;;;;;5093784;28;20436;-65
2021/04/21 02:16:52;;;;;;;38.00;30.03;;;12.20;69.60;;;;;;5093636;28;20459;-65
2021/04/21 02:19:40;;;;;;;37.50;33.47;;;12.20;69.20;;;;;;5093611;28;20488;-65
2021/04/21 02:22:21;;;;;;;40.83;34.87;;;12.10;69.10;;;;;;5093251;28;20444;-65
2021/04/21 02:24:56;;;;;;;39.33;35.30;;;12.10;69.50;;;;;;5093604;28;20426;-65
2021/04/21 02:27:29;;;;;;;37.53;33.53;;;12.10;69.40;;;;;;5093223;28;20466;-65
2021/04/21 02:29:59;;;;;;;47.43;33.47;;;12.10;68.90;;;;;;5093553;28;20841;-65
2021/04/21 02:32:35;;;;;;;38.40;34.40;;;12.00;68.80;;;;;;5093595;28;20846;-65
2021/04/21 02:35:11;;;;;;;36.27;32.43;;;12.00;69.20;;;;;;5100842;28;20433;-65
2021/04/21 02:37:44;;;;;;;35.90;31.50;;;12.00;69.10;;;;;;5100200;28;20459;-65
2021/04/21 02:40:18;;;;;;;38.20;33.70;;;11.90;68.80;;;;;;5099910;28;20961;-65
2021/04/21 02:42:50;;;;;;;39.33;34.43;;;11.80;69.20;;;;;;5100202;28;20423;-65
2021/04/21 02:45:26;;;;;;;39.43;32.17;;;11.80;70.00;;;;;;5100239;28;20428;-65
2021/04/21 02:47:58;;;;;;;37.73;33.03;;;11.70;69.70;;;;;;5100040;28;20560;-65
2021/04/21 02:50:31;;;;;;;39.60;34.40;;;11.60;69.60;;;;;;5099826;28;20786;-65
2021/04/21 02:53:07;;;;;;;44.33;36.93;;;11.50;69.20;;;;;;5100075;28;20428;-65
2021/04/21 02:55:44;;;;;;;42.10;37.57;;;11.40;69.10;;;;;;5099889;28;20462;-65
2021/04/21 02:58:15;;;;;;;37.47;33.10;;;11.30;69.50;;;;;;5099981;28;20466;-65
2021/04/21 03:00:53;;;;;;;38.23;34.03;;;11.10;68.80;;;;;;5100010;28;20467;-65
2021/04/21 03:03:30;;;;;;;46.67;40.57;;;11.00;69.70;;;;;;5100039;28;20428;-65
2021/04/21 03:06:02;;;;;;;49.40;42.83;;;10.90;70.80;;;;;;5100039;28;20437;-65
2021/04/21 03:08:34;;;;;;;49.90;43.40;;;10.80;71.50;;;;;;5099731;28;20428;-65
2021/04/21 03:11:07;;;;;;;51.80;45.50;;;10.70;72.00;;;;;;5099711;28;20450;-65
2021/04/21 03:13:37;;;;;;;53.10;46.17;;;10.70;72.70;;;;;;5100008;28;20426;-65
2021/04/21 03:16:14;;;;;;;53.23;44.30;;;10.80;74.00;;;;;;5099502;28;20920;-65
2021/04/21 03:18:43;;;;;;;49.83;42.83;;;10.80;74.40;;;;;;5099640;28;20426;-65
2021/04/21 03:21:15;;;;;;;51.17;45.00;;;10.90;74.50;;;;;;5099788;28;20483;-65
2021/04/21 03:23:44;;;;;;;50.27;44.90;;;10.90;74.10;;;;;;5099923;28;20428;-65
2021/04/21 03:26:12;;;;;;;49.57;44.13;;;10.90;74.20;;;;;;5099400;28;20443;-65
2021/04/21 03:28:40;;;;;;;53.60;44.50;;;11.00;73.90;;;;;;5099784;28;20862;-65
2021/04/21 03:31:10;;;;;;;46.87;41.77;;;11.00;73.00;;;;;;5099436;28;20439;-65
2021/04/21 03:33:43;;;;;;;47.20;42.07;;;11.10;72.80;;;;;;5099742;28;20477;-65
2021/04/21 03:36:10;;;;;;;49.97;42.10;;;11.10;72.40;;;;;;5099647;28;20435;-65
2021/04/21 03:38:37;;;;;;;49.43;42.10;;;11.10;71.90;;;;;;5099351;28;20948;-65
2021/04/21 03:41:03;;;;;;;51.57;42.30;;;11.10;71.90;;;;;;5099607;28;20488;-65
2021/04/21 03:43:32;;;;;;;47.90;42.70;;;11.10;72.10;;;;;;5099349;28;20444;-65
2021/04/21 03:45:59;;;;;;;48.07;40.90;;;11.10;71.90;;;;;;5095924;28;20511;-65
2021/04/21 03:48:27;;;;;;;46.20;40.60;;;11.10;71.80;;;;;;5096416;28;20490;-65
2021/04/21 03:50:56;;;;;;;49.03;42.33;;;11.20;72.20;;;;;;5096342;28;20451;-65
2021/04/21 03:53:26;;;;;;;48.47;42.33;;;11.10;72.00;;;;;;5096356;28;20493;-65
2021/04/21 03:55:56;;;;;;;48.97;40.77;;;11.10;72.30;;;;;;5096186;28;20456;-65
2021/04/21 03:58:27;;;;;;;50.33;41.73;;;11.10;71.80;;;;;;5096144;28;20475;-65
2021/04/21 04:00:57;;;;;;;49.20;43.37;;;11.10;72.10;;;;;;5096080;28;20466;-65
2021/04/21 04:03:27;;;;;;;46.33;41.30;;;11.20;72.60;;;;;;5095809;28;20428;-65
2021/04/21 04:06:00;;;;;;;48.40;42.23;;;11.20;72.40;;;;;;5095758;28;20448;-65
2021/04/21 04:08:30;;;;;;;49.00;39.43;;;11.20;71.90;;;;;;5096044;28;20827;-65
2021/04/21 04:11:00;;;;;;;48.57;40.27;;;11.20;71.70;;;;;;5095721;28;20945;-65
2021/04/21 04:13:32;;;;;;;45.53;40.63;;;11.20;71.90;;;;;;5096197;28;20443;-65
2021/04/21 04:15:58;;;;;;;50.77;42.07;;;11.30;72.70;;;;;;5095956;28;20432;-65
2021/04/21 04:18:26;;;;;;;49.70;40.13;;;11.20;72.80;;;;;;5095449;28;20471;-65
2021/04/21 04:20:55;;;;;;;45.50;40.13;;;11.20;73.10;;;;;;5095405;28;20997;-65
2021/04/21 04:23:23;;;;;;;46.10;41.03;;;11.20;73.00;;;;;;5095728;28;20455;-65
2021/04/21 04:25:52;;;;;;;49.70;41.97;;;11.20;72.70;;;;;;5095669;28;20448;-65
2021/04/21 04:28:19;;;;;;;50.57;43.30;;;11.20;73.10;;;;;;5095548;28;20463;-65
2021/04/21 04:30:46;;;;;;;47.87;40.03;;;11.30;73.50;;;;;;5095590;28;20446;-65
2021/04/21 04:33:15;;;;;;;46.63;41.70;;;11.20;73.50;;;;;;5095533;28;20863;-65
2021/04/21 04:35:43;;;;;;;49.13;43.43;;;11.30;73.90;;;;;;5095469;28;20451;-65
2021/04/21 04:38:12;;;;;;;49.73;41.30;;;11.20;73.70;;;;;;5095022;28;21004;-65
2021/04/21 04:40:38;;;;;;;49.67;43.23;;;11.20;73.70;;;;;;5095350;28;20455;-65
2021/04/21 04:43:05;;;;;;;46.30;40.37;;;11.20;74.10;;;;;;5095364;28;20443;-65
2021/04/21 04:45:32;;;;;;;48.27;39.40;;;11.20;74.50;;;;;;5094965;28;20456;-65
2021/04/21 04:48:01;;;;;;;46.80;41.10;;;11.20;75.30;;;;;;5094929;28;20467;-65
2021/04/21 04:50:30;;;;;;;42.13;37.53;;;11.20;74.80;;;;;;5095182;28;20436;-65
2021/04/21 04:52:59;;;;;;;47.70;42.00;;;11.20;75.10;;;;;;5094825;28;20444;-65
2021/04/21 04:55:27;;;;;;;49.50;41.67;;;11.20;75.20;;;;;;5094756;28;20464;-65
2021/04/21 04:57:56;;;;;;;48.00;41.10;;;11.20;75.50;;;;;;5093951;28;20513;-65
2021/04/21 05:00:24;;;;;;;56.20;44.63;;;11.20;75.60;;;;;;5094894;28;20472;-65
2021/04/21 05:02:55;;;;;;;62.13;47.10;;;11.10;76.00;;;;;;5095004;28;20435;-65
2021/04/21 05:05:22;;;;;;;56.50;48.03;;;11.10;76.00;;;;;;5094616;28;20913;-65
2021/04/21 05:07:53;;;;;;;52.53;43.57;;;11.10;76.10;;;;;;5094877;28;20460;-65
2021/04/21 05:10:26;;;;;;;53.17;44.10;;;11.10;76.50;;;;;;5094845;28;20415;-65
2021/04/21 05:12:53;;;;;;;52.10;43.27;;;11.10;77.00;;;;;;5094793;28;20432;-65
2021/04/21 05:16:08;;;;;;;55.20;45.17;;;11.20;77.70;;;;;;5094691;28;20444;-65
2021/04/21 05:19:12;;;;;;;62.40;46.00;;;11.30;77.90;;;;;;5095628;28;20420;-65
2021/04/21 05:22:11;;;;;;;60.37;44.07;;;11.30;77.80;;;;;;5094539;28;20490;-65
2021/04/21 05:25:11;;;;;;;48.83;39.60;;;11.40;77.70;;;;;;5094569;28;20446;-65
2021/04/21 05:28:09;;;;;;;48.30;40.83;;;11.40;77.80;;;;;;5094479;28;20455;-65
2021/04/21 05:31:20;;;;;;;50.00;41.80;;;11.50;78.10;;;;;;5068594;28;20982;-65
2021/04/21 05:34:40;;;;;;;58.90;47.43;;;11.60;78.60;;;;;;5094476;28;20423;-65
2021/04/21 05:37:57;;;;;;;56.37;46.07;;;11.60;78.60;;;;;;5031772;28;20462;-65
2021/04/21 05:40:56;;;;;;;66.77;49.73;;;11.60;78.30;;;;;;5031738;28;20478;-65
2021/04/21 05:44:01;;;;;;;59.00;48.77;;;11.70;78.70;;;;;;5094237;28;20444;-65
2021/04/21 05:47:04;;;;;;;62.47;51.03;;;11.80;78.40;;;;;;5094185;28;20459;-65
2021/04/21 05:49:57;;;;;;;64.17;49.87;;;11.80;77.70;;;;;;5093798;28;20963;-65
2021/04/21 05:52:41;;;;;;;63.47;49.73;;;11.80;77.00;;;;;;5094082;28;20439;-65
2021/04/21 05:55:35;;;;;;;73.90;49.87;;;11.80;76.80;;;;;;5093901;28;20477;-65
2021/04/21 05:58:35;;;;;;;68.67;51.07;;;11.90;76.80;;;;;;5093941;28;20458;-65
2021/04/21 06:01:23;;;;;;;68.80;50.53;;;12.00;77.10;;;;;;5093582;28;20517;-65
2021/04/21 06:03:54;;;;;;;63.50;51.80;;;12.00;76.70;;;;;;5093646;28;20939;-65
2021/04/21 06:06:20;;;;;;;57.97;49.37;;;12.00;76.10;;;;;;5093855;28;20424;-65
2021/04/21 06:08:47;;;;;;;69.97;52.13;;;12.10;76.10;;;;;;5093075;28;20933;-65
2021/04/21 06:11:17;;;;;;;60.43;48.77;;;12.10;76.10;;;;;;5093473;28;20956;-64
2021/04/21 06:13:44;;;;;;;65.93;51.87;;;12.20;75.90;;;;;;5093427;28;20933;-64
2021/04/21 06:16:12;;;;;;;61.17;49.87;;;12.20;75.80;;;;;;5093351;28;20994;-65
2021/04/21 06:18:38;;;;;;;73.67;55.00;;;12.30;75.50;;;;;;5093687;28;20432;-64
2021/04/21 06:21:16;;;;;;;62.90;51.40;;;12.30;75.40;;;;;;5093584;28;20463;-65
2021/04/21 06:23:42;;;;;;;86.00;52.77;;;12.20;75.50;;;;;;5093678;28;20765;-64
2021/04/21 06:26:09;;;;;;;66.73;51.40;;;12.20;76.10;;;;;;5093537;28;20496;-65
2021/04/21 06:28:35;;;;;;;70.13;55.53;;;12.10;76.20;;;;;;5093592;28;20451;-65
2021/04/21 06:31:07;;;;;;;63.07;52.43;;;12.10;76.60;;;;;;5093511;28;20861;-64
2021/04/21 06:33:34;;;;;;;73.97;51.77;;;12.20;76.90;;;;;;5093485;28;20443;-64
2021/04/21 06:36:01;;;;;;;71.97;53.57;;;12.30;76.90;;;;;;5093494;28;20444;-64
2021/04/21 06:38:29;;;;;;;62.17;49.17;;;12.40;77.00;;;;;;5093461;28;20440;-64
2021/04/21 06:40:56;;;;;;;61.70;50.20;;;12.40;77.00;;;;;;5093064;28;21058;-64
2021/04/21 06:43:26;;;;;;;64.93;52.17;;;12.40;76.50;;;;;;5093451;28;20451;-64
2021/04/21 06:45:53;;;;;;;58.83;49.10;;;12.40;76.90;;;;;;5093410;28;20424;-65
2021/04/21 06:48:27;;;;;;;68.47;53.87;;;12.50;76.70;;;;;;5093304;28;20506;-64
2021/04/21 06:50:54;;;;;;;63.57;48.60;;;12.60;76.70;;;;;;5093363;28;20427;-65
2021/04/21 06:53:29;;;;;;;55.27;47.27;;;12.60;76.60;;;;;;5093328;28;20447;-64
2021/04/21 06:55:56;;;;;;;52.23;44.30;;;12.70;75.30;;;;;;5093110;28;20458;-64
2021/04/21 06:58:23;;;;;;;58.83;44.80;;;12.80;73.70;;;;;;5093200;28;20463;-64
2021/04/21 07:00:49;;;;;;;53.10;45.93;;;12.80;73.50;;;;;;5093126;28;20475;-64
2021/04/21 07:03:17;;;;;;;57.10;45.70;;;12.90;73.60;;;;;;5092992;28;20466;-65
2021/04/21 07:05:44;;;;;;;50.57;44.03;;;13.00;74.40;;;;;;5092831;28;20444;-65
2021/04/21 07:08:11;;;;;;;53.63;44.33;;;13.10;73.70;;;;;;5093105;28;20471;-65
2021/04/21 07:10:43;;;;;;;52.10;44.20;;;13.30;73.20;;;;;;5092839;28;20443;-65
2021/04/21 07:13:13;;;;;;;48.47;43.07;;;13.40;72.40;;;;;;5093263;28;20432;-65
2021/04/21 07:15:40;;;;;;;50.00;44.57;;;13.60;72.10;;;;;;5093258;28;20442;-65
2021/04/21 07:18:11;;;;;;;47.97;42.80;;;13.80;71.20;;;;;;5093052;28;20516;-65
2021/04/21 07:20:39;;;;;;;50.43;44.93;;;13.90;70.30;;;;;;5094960;28;20459;-65
2021/04/21 07:23:07;;;;;;;48.90;43.50;;;14.10;69.80;;;;;;5096908;28;20443;-64
2021/04/21 07:25:34;;;;;;;48.23;41.63;;;14.30;68.80;;;;;;5096852;28;20439;-65
2021/04/21 07:28:01;;;;;;;46.67;39.47;;;14.40;68.00;;;;;;5096794;28;20459;-65
2021/04/21 07:30:30;;;;;;;51.93;44.80;;;14.60;67.30;;;;;;5096805;28;20439;-65
2021/04/21 07:32:56;;;;;;;50.97;45.67;;;14.80;66.90;;;;;;5096823;28;20435;-64
2021/04/21 07:35:25;;;;;;;52.03;43.47;;;15.00;67.20;;;;;;5096782;28;20451;-65
2021/04/21 07:37:52;;;;;;;50.83;44.50;;;15.00;66.60;;;;;;5097030;28;20487;-65
2021/04/21 07:40:31;;;;;;;46.53;40.63;;;15.10;66.20;;;;;;5096813;28;20513;-66
2021/04/21 07:43:14;;;;;;;52.43;40.17;;;15.20;65.60;;;;;;5096950;28;20443;-65
2021/04/21 07:45:43;;;;;;;41.97;37.60;;;15.20;63.40;;;;;;5096535;28;20514;-65
2021/04/21 07:48:42;;;;;;;42.27;36.17;;;15.30;63.50;;;;;;5096490;28;20520;-65
2021/04/21 07:51:32;;;;;;;47.37;42.27;;;15.50;63.40;;;;;;5096557;28;20483;-65
2021/04/21 07:54:02;;;;;;;48.27;42.10;;;15.70;63.00;;;;;;5087435;28;20815;-66
2021/04/21 07:56:36;;;;;;;45.63;40.17;;;15.90;62.30;;;;;;5096037;28;20483;-65
2021/04/21 07:59:18;;;;;;;50.53;44.63;;;16.20;61.30;;;;;;5096613;28;20510;-65
2021/04/21 08:01:45;;;;;;;50.67;40.40;;;16.30;60.80;;;;;;5096808;28;20478;-64
2021/04/21 08:04:19;;;;;;;49.53;43.43;;;16.30;61.40;;;;;;5096543;28;20455;-65
2021/04/21 08:06:48;;;;;;;46.63;41.13;;;16.30;60.90;;;;;;5095980;28;20470;-65
2021/04/21 08:09:15;;;;;;;42.07;37.80;;;16.40;60.90;;;;;;5096115;28;20440;-65
2021/04/21 08:11:41;;;;;;;43.07;38.47;;;16.60;59.90;;;;;;5096059;28;20530;-65
2021/04/21 08:14:08;;;;;;;40.23;36.20;;;16.70;60.30;;;;;;5096143;28;20459;-65
2021/04/21 08:16:36;;;;;;;45.03;40.40;;;16.80;59.30;;;;;;5096114;28;20472;-65
2021/04/21 08:19:16;;;;;;;47.77;41.83;;;16.80;58.90;;;;;;5095900;28;20527;-65
2021/04/21 08:21:44;;;;;;;44.90;40.13;;;16.60;58.70;;;;;;5096148;28;20456;-64
2021/04/21 08:24:15;;;;;;;55.33;41.10;;;16.50;59.30;;;;;;5095978;28;20550;-64
2021/04/21 08:26:43;;;;;;;48.10;43.07;;;16.40;59.70;;;;;;5095641;28;20464;-65
2021/04/21 08:29:11;;;;;;;49.57;44.47;;;16.20;60.90;;;;;;5095645;28;20451;-65
2021/04/21 08:31:39;;;;;;;49.87;41.13;;;16.10;61.00;;;;;;5095294;28;20477;-65
2021/04/21 08:34:06;;;;;;;48.07;42.97;;;16.10;61.70;;;;;;5095265;28;20945;-64
2021/04/21 08:36:33;;;;;;;52.23;44.13;;;15.90;63.00;;;;;;5095455;28;20475;-65
2021/04/21 08:38:59;;;;;;;48.47;42.30;;;16.00;62.10;;;;;;5095524;28;20470;-65
2021/04/21 08:41:28;;;;;;;45.47;39.50;;;16.00;62.70;;;;;;5095229;28;20993;-65
2021/04/21 08:43:55;;;;;;;47.43;42.50;;;16.20;63.60;;;;;;5095087;28;20497;-65
2021/04/21 08:46:22;;;;;;;43.47;39.03;;;16.40;62.10;;;;;;5095247;28;20450;-65
2021/04/21 08:48:49;;;;;;;44.83;40.00;;;16.70;61.50;;;;;;5095312;28;20810;-65
2021/04/21 08:51:18;;;;;;;43.07;38.60;;;16.80;60.50;;;;;;5095202;28;20442;-65
2021/04/21 08:53:47;;;;;;;44.97;40.20;;;16.80;62.10;;;;;;5095218;28;20428;-65
2021/04/21 08:56:16;;;;;;;42.83;38.33;;;16.90;60.10;;;;;;5094773;28;20516;-65
2021/04/21 08:58:44;;;;;;;42.27;38.03;;;16.90;59.00;;;;;;5095057;28;20451;-65
2021/04/21 09:01:12;;;;;;;43.63;39.23;;;17.00;60.00;;;;;;5094985;28;20459;-65
2021/04/21 09:03:39;;;;;;;43.27;38.43;;;17.30;59.60;;;;;;5095645;28;20481;-65
2021/04/21 09:06:07;;;;;;;36.23;32.57;;;17.40;58.10;;;;;;5094886;28;20431;-66
2021/04/21 09:08:35;;;;;;;35.40;31.73;;;17.80;57.90;;;;;;5094881;28;20478;-65
2021/04/21 09:11:01;;;;;;;33.73;30.23;;;18.10;56.00;;;;;;5094804;28;20445;-65
2021/04/21 09:13:27;;;;;;;31.77;28.70;;;18.40;55.30;;;;;;5094818;28;20428;-65
2021/04/21 09:15:54;;;;;;;27.63;24.80;;;18.80;55.40;;;;;;5094362;28;20456;-65
2021/04/21 09:18:31;;;;;;;27.50;24.27;;;19.00;53.10;;;;;;5094350;28;20969;-65
2021/04/21 09:20:59;;;;;;;23.33;20.90;;;19.20;51.40;;;;;;5094335;28;20459;-65
2021/04/21 09:23:35;;;;;;;21.63;19.63;;;19.50;49.20;;;;;;5094340;28;20454;-65
2021/04/21 09:26:01;;;;;;;19.73;17.70;;;19.80;49.20;;;;;;5094668;28;20428;-65
2021/04/21 09:28:38;;;;;;;20.30;18.40;;;19.90;45.80;;;;;;5094447;28;20468;-65
2021/04/21 09:31:04;;;;;;;23.40;21.00;;;20.00;45.70;;;;;;5094535;28;20423;-65
2021/04/21 09:33:31;;;;;;;20.67;18.50;;;20.30;46.00;;;;;;5094501;28;20507;-66
2021/04/21 09:35:58;;;;;;;21.80;19.60;;;20.40;45.50;;;;;;5094455;28;20457;-66
2021/04/21 09:38:27;;;;;;;22.50;20.10;;;20.40;44.30;;;;;;5094354;28;20460;-65
2021/04/21 09:40:55;;;;;;;17.70;15.90;;;20.40;44.00;;;;;;5094000;28;20568;-65
2021/04/21 09:43:23;;;;;;;21.80;19.70;;;20.60;45.20;;;;;;5093616;28;20439;-65
2021/04/21 09:45:51;;;;;;;20.90;18.77;;;20.90;45.90;;;;;;5093945;28;20431;-65
2021/04/21 09:48:18;;;;;;;20.90;19.00;;;21.00;43.60;;;;;;5094116;28;20472;-65
2021/04/21 09:50:56;;;;;;;21.13;19.20;;;21.10;44.20;;;;;;5094123;28;20442;-65
2021/04/21 09:53:25;;;;;;;20.00;18.10;;;21.20;43.70;;;;;;5093785;28;21006;-65
2021/04/21 09:56:09;;;;;;;20.67;18.70;;;21.30;42.90;;;;;;5093857;28;20455;-66
2021/04/21 09:58:38;;;;;;;17.50;15.83;;;21.60;43.10;;;;;;5094038;28;20432;-66
2021/04/21 10:01:22;;;;;;;16.67;15.27;;;22.10;43.70;;;;;;5093905;28;20463;-66
2021/04/21 10:04:08;;;;;;;18.07;16.37;;;22.80;41.40;;;;;;5093636;28;20953;-66
2021/04/21 10:06:34;;;;;;;17.20;15.40;;;23.20;38.00;;;;;;5093802;28;20467;-66
2021/04/21 10:09:01;;;;;;;17.90;16.07;;;23.30;38.70;;;;;;5093863;28;20436;-66
2021/04/21 10:11:28;;;;;;;16.63;15.23;;;23.40;37.30;;;;;;5093771;28;20480;-66
2021/04/21 10:13:57;;;;;;;18.40;16.50;;;23.60;38.00;;;;;;5093740;28;20783;-66
2021/04/21 10:16:24;;;;;;;16.73;15.13;;;24.00;38.00;;;;;;5093682;28;20475;-66
2021/04/21 10:18:51;;;;;;;15.03;13.83;;;24.30;36.60;;;;;;5093676;28;20541;-66
2021/04/21 10:21:19;;;;;;;15.93;14.33;;;24.90;35.10;;;;;;5093572;28;20479;-66
2021/04/21 10:23:47;;;;;;;16.97;15.37;;;25.20;33.70;;;;;;5093623;28;20447;-66
2021/04/21 10:26:15;;;;;;;16.90;15.40;;;25.70;34.10;;;;;;5093418;28;20481;-67
2021/04/21 10:28:45;;;;;;;17.50;15.80;;;26.20;31.80;;;;;;5093524;28;20440;-66
2021/04/21 10:31:12;;;;;;;16.17;14.67;;;26.50;30.70;;;;;;5094214;28;20435;-66
2021/04/21 10:33:39;;;;;;;16.50;15.10;;;26.80;30.00;;;;;;5094398;28;20493;-66
2021/04/21 10:36:07;;;;;;;13.97;12.63;;;26.90;28.70;;;;;;5093534;28;20440;-68
2021/04/21 10:38:34;;;;;;;17.00;15.50;;;27.20;28.90;;;;;;5093496;28;20448;-67
2021/04/21 10:41:24;;;;;;;16.90;15.37;;;27.70;28.10;;;;;;5093501;28;20470;-66
2021/04/21 10:44:07;;;;;;;17.50;16.00;;;28.10;27.90;;;;;;5093253;28;20432;-68
2021/04/21 10:47:00;;;;;;;16.17;14.70;;;28.20;27.50;;;;;;5093395;28;20467;-69
2021/04/21 10:49:37;;;;;;;16.27;14.90;;;28.40;28.20;;;;;;5093437;28;20458;-68
2021/04/21 10:52:15;;;;;;;15.50;14.20;;;28.90;26.50;;;;;;5093351;28;20447;-69
2021/04/21 10:54:42;;;;;;;13.33;12.13;;;29.20;25.20;;;;;;5095555;28;20443;-69
2021/04/21 10:57:28;;;;;;;17.07;15.47;;;29.60;26.10;;;;;;5097089;28;20527;-69
2021/04/21 11:00:29;;;;;;;16.10;14.67;;;29.40;24.90;;;;;;5097340;28;20439;-66
2021/04/21 11:03:00;;;;;;;14.70;13.50;;;29.00;25.80;;;;;;5063885;28;20600;-66
2021/04/21 11:05:39;;;;;;;16.03;14.63;;;29.10;25.80;;;;;;5097230;28;20454;-67
2021/04/21 11:08:07;;;;;;;12.23;11.23;;;29.30;25.20;;;;;;5097208;28;20478;-66
2021/04/21 11:10:51;;;;;;;14.17;12.50;;;29.40;24.80;;;;;;5097169;28;20485;-66
2021/04/21 11:13:37;;;;;;;15.33;13.80;;;29.50;23.90;;;;;;5095822;28;20487;-66
2021/04/21 11:16:06;;;;;;;15.20;14.00;;;29.60;23.10;;;;;;5097116;28;20804;-66
2021/04/21 11:18:33;;;;;;;14.30;12.90;;;29.70;23.70;;;;;;5097090;28;20428;-66
2021/04/21 11:21:05;;;;;;;13.50;12.30;;;29.80;23.80;;;;;;5096940;28;20486;-66
2021/04/21 11:24:19;;;;;;;13.57;12.37;;;29.70;24.40;;;;;;5096893;28;20500;-66
2021/04/21 11:26:47;;;;;;;12.10;11.20;;;30.30;24.20;;;;;;5096702;28;20980;-66
2021/04/21 11:29:15;;;;;;;12.70;11.40;;;30.20;22.50;;;;;;5096842;28;20471;-66
2021/04/21 11:32:13;;;;;;;13.50;10.40;;;30.40;23.80;;;;;;5096505;28;20968;-67
2021/04/21 11:34:40;;;;;;;12.47;11.20;;;31.10;23.30;;;;;;5096783;28;20424;-67
2021/04/21 11:37:15;;;;;;;11.90;10.77;;;31.90;22.30;;;;;;5096627;28;20474;-67
2021/04/21 11:40:08;;;;;;;10.80;9.90;;;32.20;21.50;;;;;;5096756;28;20798;-67
2021/04/21 11:42:43;;;;;;;11.67;10.77;;;32.40;21.60;;;;;;5096952;28;20741;-68
2021/04/21 11:45:30;;;;;;;12.93;11.83;;;32.90;21.60;;;;;;5096686;28;20462;-67
2021/04/21 11:48:18;;;;;;;12.70;11.70;;;33.50;21.40;;;;;;5096479;28;20470;-67
2021/04/21 11:50:47;;;;;;;10.03;9.33;;;34.10;20.80;;;;;;5096539;28;20446;-67
2021/04/21 11:53:16;;;;;;;11.50;10.60;;;34.60;21.20;;;;;;5096413;28;20431;-68
2021/04/21 11:55:52;;;;;;;11.30;10.30;;;35.10;19.40;;;;;;5096136;28;20512;-68
2021/04/21 11:58:21;;;;;;;9.60;8.80;;;35.00;18.50;;;;;;5096284;28;20466;-68
2021/04/21 12:00:49;;;;;;;11.27;10.27;;;34.40;18.80;;;;;;5095757;28;20459;-68
2021/04/21 12:03:19;;;;;;;10.40;9.40;;;33.70;19.00;;;;;;5096081;28;20447;-68
2021/04/21 12:05:47;;;;;;;12.30;11.10;;;32.70;19.10;;;;;;5095342;28;20448;-68
2021/04/21 12:08:16;;;;;;;11.40;10.30;;;31.60;20.50;;;;;;5095721;28;20973;-68
2021/04/21 12:10:43;;;;;;;9.97;9.20;;;31.20;19.80;;;;;;5095782;28;20819;-68
2021/04/21 12:13:22;;;;;;;9.73;9.00;;;30.70;20.40;;;;;;5095942;28;20431;-68
2021/04/21 12:15:50;;;;;;;9.10;8.20;;;30.30;20.60;;;;;;5095940;28;20420;-68
2021/04/21 12:18:33;;;;;;;9.93;9.00;;;29.90;21.60;;;;;;5095388;28;20991;-68
2021/04/21 12:21:00;;;;;;;10.93;9.60;;;29.30;23.30;;;;;;5095934;28;20467;-67
2021/04/21 12:23:29;;;;;;;9.80;8.90;;;28.80;24.20;;;;;;5095700;28;20819;-68
2021/04/21 12:25:56;;;;;;;13.57;12.47;;;28.50;23.80;;;;;;5095723;28;20439;-67
2021/04/21 12:28:22;;;;;;;10.17;9.37;;;27.80;25.50;;;;;;5095269;28;20981;-67
2021/04/21 12:30:57;;;;;;;13.13;9.90;;;27.60;27.00;;;;;;5095689;28;20440;-67
2021/04/21 12:33:24;;;;;;;9.20;8.40;;;27.90;26.90;;;;;;5095400;28;20434;-67
2021/04/21 12:35:56;;;;;;;11.97;10.77;;;28.60;25.60;;;;;;5095603;28;20451;-67
2021/04/21 12:38:30;;;;;;;10.13;9.30;;;30.00;25.00;;;;;;5095425;28;20555;-67
2021/04/21 12:40:57;;;;;;;9.13;8.43;;;31.30;24.50;;;;;;5095425;28;20467;-67
2021/04/21 12:43:28;;;;;;;12.43;11.43;;;32.50;23.30;;;;;;5095549;28;20527;-67
2021/04/21 12:45:54;;;;;;;12.47;11.47;;;33.30;22.40;;;;;;5095489;28;20897;-68
2021/04/21 12:48:26;;;;;;;13.10;12.00;;;33.80;20.90;;;;;;5096187;28;20506;-68
2021/04/21 12:50:54;;;;;;;14.37;13.00;;;34.30;19.90;;;;;;5095144;28;20443;-68
2021/04/21 12:53:23;;;;;;;13.80;12.47;;;34.80;19.00;;;;;;5097096;28;20496;-68
2021/04/21 12:55:51;;;;;;;14.20;13.10;;;35.00;19.10;;;;;;5094705;28;20512;-68
2021/04/21 12:58:37;;;;;;;13.97;12.90;;;34.20;18.60;;;;;;5094946;28;20463;-68